createdAt,value
2018-08-18T00:01:46.972Z,19.00
2018-08-18T00:04:38.040Z,19.00
2018-08-18T00:07:06.480Z,19.00
2018-08-18T00:09:34.979Z,19.00
2018-08-18T00:12:03.400Z,18.90
2018-08-18T00:14:32.474Z,18.90
2018-08-18T00:17:00.979Z,18.90
2018-08-18T00:19:29.405Z,18.80
2018-08-18T00:21:57.853Z,18.80
2018-08-18T00:24:26.272Z,18.80
2018-08-18T00:26:54.661Z,18.80
2018-08-18T00:29:23.106Z,18.80
2018-08-18T00:31:51.539Z,18.90
2018-08-18T00:34:20.051Z,18.80
2018-08-18T00:36:48.465Z,18.80
2018-08-18T00:39:17.038Z,18.80
2018-08-18T00:41:45.496Z,18.80
2018-08-18T00:44:13.872Z,18.80
2018-08-18T00:46:42.289Z,18.80
2018-08-18T00:49:10.748Z,18.70
2018-08-18T00:51:41.648Z,18.70
2018-08-18T00:54:10.242Z,18.70
2018-08-18T00:56:40.679Z,18.70
2018-08-18T00:59:09.112Z,18.70
2018-08-18T01:01:37.587Z,18.70
2018-08-18T01:04:09.164Z,18.70
2018-08-18T01:06:38.997Z,18.70
2018-08-18T01:09:10.520Z,18.60
2018-08-18T01:11:39.205Z,18.60
2018-08-18T01:14:14.000Z,18.50
2018-08-18T01:16:47.664Z,18.50
2018-08-18T01:19:16.231Z,18.50
2018-08-18T01:21:50.090Z,18.50
2018-08-18T01:24:18.752Z,18.50
2018-08-18T01:26:47.238Z,18.40
2018-08-18T01:29:17.128Z,18.40
2018-08-18T01:31:46.036Z,18.40
2018-08-18T01:34:14.428Z,18.40
2018-08-18T01:36:42.846Z,18.40
2018-08-18T01:39:12.762Z,18.30
2018-08-18T01:41:41.187Z,18.30
2018-08-18T01:44:17.917Z,18.20
2018-08-18T01:46:47.804Z,18.20
2018-08-18T01:49:28.567Z,18.20
2018-08-18T01:51:57.764Z,18.20
2018-08-18T01:54:26.221Z,18.20
2018-08-18T01:57:11.888Z,18.10
2018-08-18T01:59:42.392Z,18.10
2018-08-18T02:02:14.132Z,18.10
2018-08-18T02:04:43.068Z,18.10
2018-08-18T02:07:15.757Z,18.00
2018-08-18T02:09:44.191Z,18.00
2018-08-18T02:12:13.604Z,18.00
2018-08-18T02:14:42.044Z,18.00
2018-08-18T02:17:20.685Z,17.90
2018-08-18T02:19:49.701Z,17.90
2018-08-18T02:22:18.052Z,17.90
2018-08-18T02:24:46.517Z,17.90
2018-08-18T02:27:15.088Z,17.90
2018-08-18T02:29:44.108Z,17.80
2018-08-18T02:32:26.915Z,17.90
2018-08-18T02:34:56.285Z,17.90
2018-08-18T02:37:24.922Z,17.90
2018-08-18T02:39:53.347Z,18.00
2018-08-18T02:42:21.712Z,18.00
2018-08-18T02:44:50.229Z,18.10
2018-08-18T02:47:18.693Z,18.10
2018-08-18T02:49:49.232Z,18.10
2018-08-18T02:52:24.945Z,18.10
2018-08-18T02:54:54.342Z,18.10
2018-08-18T02:57:56.677Z,18.10
2018-08-18T03:00:30.460Z,18.10
2018-08-18T03:02:58.872Z,18.00
2018-08-18T03:05:27.313Z,18.00
2018-08-18T03:07:55.847Z,17.90
2018-08-18T03:10:27.840Z,17.90
2018-08-18T03:12:58.942Z,17.90
2018-08-18T03:16:00.226Z,17.90
2018-08-18T03:18:47.155Z,17.90
2018-08-18T03:21:15.885Z,17.80
2018-08-18T03:23:55.725Z,17.80
2018-08-18T03:26:56.069Z,17.90
2018-08-18T03:29:26.360Z,17.90
2018-08-18T03:31:54.961Z,17.90
2018-08-18T03:34:23.400Z,17.90
2018-08-18T03:36:55.004Z,17.90
2018-08-18T03:39:28.977Z,17.90
2018-08-18T03:41:59.668Z,17.90
2018-08-18T03:44:28.086Z,17.80
2018-08-18T03:46:56.521Z,17.80
2018-08-18T03:49:25.873Z,17.80
2018-08-18T03:51:55.287Z,17.80
2018-08-18T03:54:23.762Z,17.80
2018-08-18T03:56:52.290Z,17.80
2018-08-18T03:59:20.717Z,17.80
2018-08-18T04:01:55.540Z,17.80
2018-08-18T04:04:27.613Z,17.80
2018-08-18T04:06:57.208Z,17.80
2018-08-18T04:09:26.863Z,17.70
2018-08-18T04:11:56.588Z,17.70
2018-08-18T04:14:30.194Z,17.70
2018-08-18T04:16:58.934Z,17.60
2018-08-18T04:19:27.355Z,17.60
2018-08-18T04:21:56.941Z,17.70
2018-08-18T04:24:32.266Z,17.70
2018-08-18T04:27:02.577Z,17.70
2018-08-18T04:29:30.945Z,17.70
2018-08-18T04:31:59.949Z,17.70
2018-08-18T04:34:28.347Z,17.70
2018-08-18T04:36:56.748Z,17.70
2018-08-18T04:39:25.267Z,17.70
2018-08-18T04:41:53.744Z,17.70
2018-08-18T04:44:22.210Z,17.70
2018-08-18T04:46:50.621Z,17.70
2018-08-18T04:49:19.024Z,17.70
2018-08-18T04:51:47.529Z,17.60
2018-08-18T04:54:16.009Z,17.70
2018-08-18T04:56:44.621Z,17.70
2018-08-18T04:59:12.957Z,17.70
2018-08-18T05:01:41.949Z,17.70
2018-08-18T05:04:11.584Z,17.70
2018-08-18T05:06:41.384Z,17.60
2018-08-18T05:09:11.244Z,17.60
2018-08-18T05:11:39.765Z,17.70
2018-08-18T05:14:08.257Z,17.70
2018-08-18T05:16:36.631Z,17.80
2018-08-18T05:19:05.290Z,17.80
2018-08-18T05:21:33.754Z,17.80
2018-08-18T05:24:19.051Z,17.80
2018-08-18T05:26:47.500Z,17.70
2018-08-18T05:29:15.914Z,17.80
2018-08-18T05:31:44.438Z,17.90
2018-08-18T05:34:12.852Z,17.90
2018-08-18T05:36:41.454Z,17.90
2018-08-18T05:39:09.889Z,17.80
2018-08-18T05:41:38.241Z,17.90
2018-08-18T05:44:06.726Z,17.90
2018-08-18T05:46:35.206Z,17.90
2018-08-18T05:49:07.913Z,17.90
2018-08-18T05:51:41.072Z,17.90
2018-08-18T05:54:11.184Z,18.00
2018-08-18T05:56:41.077Z,18.00
2018-08-18T05:59:09.489Z,18.00
2018-08-18T06:01:39.334Z,18.00
2018-08-18T06:04:12.836Z,18.00
2018-08-18T06:06:41.978Z,18.00
2018-08-18T06:09:11.900Z,18.10
2018-08-18T06:11:40.520Z,18.10
2018-08-18T06:14:53.577Z,18.10
2018-08-18T06:17:31.812Z,18.10
2018-08-18T06:20:17.193Z,18.10
2018-08-18T06:22:45.678Z,18.10
2018-08-18T14:07:36.170Z,18.30
2018-08-18T14:10:04.906Z,27.30
2018-08-18T14:12:33.636Z,27.10
2018-08-18T14:15:03.283Z,27.00
2018-08-18T14:17:32.938Z,26.90
2018-08-18T14:20:01.406Z,26.90
2018-08-18T14:22:29.869Z,26.80
2018-08-18T14:24:58.361Z,26.60
2018-08-18T14:27:26.865Z,26.50
2018-08-18T14:29:55.348Z,26.40
2018-08-18T14:32:28.236Z,26.30
2018-08-18T14:35:12.280Z,26.30
2018-08-18T14:37:42.056Z,26.30
2018-08-18T14:40:15.853Z,26.20
2018-08-18T14:42:44.829Z,26.20
2018-08-18T14:45:16.713Z,26.20
2018-08-18T14:47:45.994Z,26.20
2018-08-18T14:50:31.268Z,26.10
2018-08-18T14:53:00.614Z,26.10
2018-08-18T14:55:29.169Z,26.10
2018-08-18T14:58:03.079Z,26.00
2018-08-18T15:00:32.564Z,26.00
2018-08-18T15:03:01.306Z,26.00
2018-08-18T15:05:29.978Z,26.00
2018-08-18T15:08:00.430Z,25.90
2018-08-18T15:10:42.317Z,25.90
2018-08-18T15:13:11.619Z,25.90
2018-08-18T15:15:40.449Z,25.80
2018-08-18T15:31:09.445Z,25.80
2018-08-18T15:33:38.518Z,25.80
2018-08-18T15:36:17.058Z,25.30
2018-08-18T15:38:46.650Z,25.30
2018-08-18T15:41:15.674Z,25.30
2018-08-18T15:43:44.870Z,25.30
2018-08-18T15:46:13.562Z,25.30
2018-08-18T15:48:42.476Z,25.20
2018-08-18T15:51:11.233Z,25.20
2018-08-18T15:54:02.723Z,25.20
2018-08-18T15:56:32.818Z,25.20
2018-08-18T15:59:02.227Z,25.20
2018-08-18T16:01:32.912Z,25.20
2018-08-18T16:04:03.472Z,25.30
2018-08-18T16:06:33.173Z,25.30
2018-08-18T16:09:02.126Z,25.30
2018-08-18T16:11:30.841Z,25.30
2018-08-18T16:14:00.462Z,25.30
2018-08-18T16:16:29.065Z,25.30
2018-08-18T16:19:03.657Z,25.30
2018-08-18T16:21:34.791Z,25.20
2018-08-18T16:24:03.404Z,25.20
2018-08-18T16:26:32.744Z,25.10
2018-08-18T16:29:05.713Z,25.10
2018-08-18T16:31:35.324Z,25.10
2018-08-18T16:34:04.963Z,25.00
2018-08-18T16:36:39.326Z,24.80
2018-08-18T16:39:09.124Z,24.80
2018-08-18T16:41:37.709Z,24.80
2018-08-18T16:44:08.364Z,24.90
2018-08-18T16:46:37.995Z,24.90
2018-08-18T16:49:07.832Z,24.90
2018-08-18T16:51:52.273Z,24.90
2018-08-18T16:54:22.854Z,24.90
2018-08-18T16:56:51.584Z,24.80
2018-08-18T16:59:20.806Z,24.80
2018-08-18T17:01:50.237Z,24.70
2018-08-18T17:04:28.085Z,24.60
2018-08-18T17:06:56.924Z,24.50
2018-08-18T17:09:38.140Z,24.50
2018-08-18T17:12:16.056Z,24.40
2018-08-18T17:14:44.505Z,24.40
2018-08-18T17:17:13.159Z,24.40
2018-08-18T17:19:41.826Z,24.40
2018-08-18T17:22:11.484Z,24.40
2018-08-18T17:24:41.223Z,24.50
2018-08-18T17:27:10.008Z,24.40
2018-08-18T17:29:39.665Z,24.40
2018-08-18T17:32:09.021Z,24.40
2018-08-18T17:34:37.520Z,24.30
2018-08-18T17:37:06.673Z,24.30
2018-08-18T17:39:37.735Z,24.20
2018-08-18T17:42:06.304Z,24.20
2018-08-18T17:44:35.052Z,24.20
2018-08-18T17:47:07.268Z,24.20
2018-08-18T17:50:13.414Z,24.20
2018-08-18T17:52:41.969Z,24.20
2018-08-18T17:55:16.554Z,24.10
2018-08-18T17:57:45.121Z,24.10
2018-08-18T18:00:19.484Z,24.10
2018-08-18T18:02:53.784Z,24.10
2018-08-18T18:05:24.849Z,24.10
2018-08-18T18:07:55.520Z,24.10
2018-08-18T18:10:25.625Z,24.00
2018-08-18T18:12:54.096Z,24.00
2018-08-18T18:15:30.252Z,23.90
2018-08-18T18:17:58.864Z,23.80
2018-08-18T18:20:28.762Z,23.80
2018-08-18T18:22:57.344Z,23.80
2018-08-18T18:25:25.803Z,23.80
2018-08-18T18:27:54.198Z,23.70
2018-08-18T18:30:25.372Z,23.70
2018-08-18T18:32:53.806Z,23.70
2018-08-18T18:35:23.469Z,23.70
2018-08-18T18:37:52.308Z,23.70
2018-08-18T18:40:20.984Z,23.70
2018-08-18T18:42:52.837Z,23.70
2018-08-18T18:45:23.313Z,23.60
2018-08-18T18:47:52.934Z,23.60
2018-08-18T18:50:21.388Z,23.60
2018-08-18T18:52:55.417Z,23.60
2018-08-18T18:55:34.726Z,23.50
2018-08-18T18:58:34.136Z,23.50
2018-08-18T19:01:04.965Z,23.50
2018-08-18T19:03:33.432Z,23.40
2018-08-18T19:06:15.076Z,23.40
2018-08-18T19:08:57.801Z,23.30
2018-08-18T19:11:27.019Z,23.30
2018-08-18T19:13:55.479Z,23.30
2018-08-18T19:16:24.774Z,23.30
2018-08-18T19:18:53.261Z,23.20
2018-08-18T19:21:21.809Z,23.20
2018-08-18T19:23:51.144Z,23.20
2018-08-18T19:26:19.576Z,23.20
2018-08-18T19:28:48.933Z,23.20
2018-08-18T19:31:18.356Z,23.20
2018-08-18T19:33:47.385Z,23.20
2018-08-18T19:36:15.836Z,23.10
2018-08-18T19:38:44.375Z,23.10
2018-08-18T19:41:13.260Z,23.10
2018-08-18T19:43:41.817Z,23.00
2018-08-18T19:46:10.241Z,22.90
2018-08-18T19:48:39.297Z,22.90
2018-08-18T19:51:07.752Z,22.90
2018-08-18T19:53:36.956Z,22.90
2018-08-18T19:56:09.784Z,22.90
2018-08-18T19:58:38.340Z,22.80
2018-08-18T20:01:06.985Z,22.80
2018-08-18T20:03:35.426Z,22.80
2018-08-18T20:06:08.094Z,22.70
2018-08-18T20:08:36.619Z,22.70
2018-08-18T20:11:05.327Z,22.70
2018-08-18T20:13:33.852Z,22.70
2018-08-18T20:16:03.584Z,22.60
2018-08-18T20:18:34.663Z,22.60
2018-08-18T20:21:03.084Z,22.50
2018-08-18T20:23:31.651Z,22.50
2018-08-18T20:26:01.119Z,22.50
2018-08-18T20:28:29.576Z,22.50
2018-08-18T20:30:58.144Z,22.40
2018-08-18T20:33:26.751Z,22.40
2018-08-18T20:35:55.282Z,22.40
2018-08-18T20:38:24.824Z,22.40
2018-08-18T20:40:54.448Z,22.40
2018-08-18T20:43:22.848Z,22.40
2018-08-18T20:45:52.298Z,22.30
2018-08-18T20:48:23.175Z,22.30
2018-08-18T20:50:52.455Z,22.20
2018-08-18T20:53:20.942Z,22.30
2018-08-18T20:55:59.744Z,22.20
2018-08-18T20:58:28.723Z,22.20
2018-08-18T21:00:57.099Z,22.20
2018-08-18T21:03:40.680Z,22.20
2018-08-18T21:06:09.168Z,22.10
2018-08-18T21:08:37.657Z,22.10
2018-08-18T21:11:06.168Z,22.10
2018-08-18T21:13:35.009Z,22.10
2018-08-18T21:16:03.470Z,22.10
2018-08-18T21:18:32.572Z,22.00
2018-08-18T21:21:01.393Z,22.00
2018-08-18T21:23:30.834Z,22.00
2018-08-18T21:25:59.829Z,22.00
2018-08-18T21:28:28.300Z,22.00
2018-08-18T21:30:56.724Z,21.90
2018-08-18T21:33:25.544Z,21.90
2018-08-18T21:35:54.056Z,21.90
2018-08-18T21:38:22.559Z,21.90
2018-08-18T21:40:51.039Z,21.90
2018-08-18T21:43:30.824Z,21.90
2018-08-18T21:45:59.387Z,21.90
2018-08-18T21:48:39.533Z,21.80
2018-08-18T21:51:07.894Z,21.80
2018-08-18T21:53:36.387Z,21.70
2018-08-18T21:56:04.880Z,21.70
2018-08-18T21:58:33.347Z,21.70
2018-08-18T22:01:07.088Z,21.70
2018-08-18T22:03:35.638Z,21.70
2018-08-18T22:06:04.176Z,21.60
2018-08-18T22:08:32.650Z,21.70
2018-08-18T22:11:01.163Z,21.60
2018-08-18T22:13:39.280Z,21.60
2018-08-18T22:16:07.803Z,21.60
2018-08-18T22:18:36.218Z,21.60
2018-08-18T22:21:07.745Z,21.60
2018-08-18T22:23:36.297Z,21.50
2018-08-18T22:26:08.929Z,21.50
2018-08-18T22:28:37.364Z,21.50
2018-08-18T22:31:05.865Z,21.50
2018-08-18T22:33:38.463Z,21.40
2018-08-18T22:36:06.926Z,21.40
2018-08-18T22:38:35.360Z,21.40
2018-08-18T22:41:03.745Z,21.40
2018-08-18T22:43:34.830Z,21.40
2018-08-18T22:46:03.340Z,21.30
2018-08-18T22:48:31.813Z,21.30
2018-08-18T22:51:00.286Z,21.30
2018-08-18T22:53:28.718Z,21.30
2018-08-18T22:55:57.148Z,21.20
2018-08-18T22:58:25.703Z,21.20
2018-08-18T23:00:55.256Z,21.10
2018-08-18T23:03:23.712Z,21.20
2018-08-18T23:05:52.090Z,21.10
2018-08-18T23:08:21.013Z,21.10
2018-08-18T23:10:49.425Z,21.10
2018-08-18T23:13:17.826Z,21.00
2018-08-18T23:15:46.382Z,21.00
2018-08-18T23:18:14.982Z,21.00
2018-08-18T23:20:43.506Z,21.00
2018-08-18T23:23:12.279Z,20.90
2018-08-18T23:25:40.794Z,20.90
2018-08-18T23:28:09.234Z,20.90
2018-08-18T23:30:38.878Z,20.80
2018-08-18T23:33:08.936Z,20.80
2018-08-18T23:35:37.469Z,20.80
2018-08-18T23:38:05.970Z,20.80
2018-08-18T23:40:34.414Z,20.80
2018-08-18T23:43:02.902Z,20.80
2018-08-18T23:45:38.360Z,20.70
2018-08-18T23:48:09.263Z,20.70
2018-08-18T23:50:38.690Z,20.70
2018-08-18T23:53:08.308Z,20.60
2018-08-18T23:56:00.651Z,20.60
2018-08-18T23:58:30.234Z,20.50
